North Hudson, Wisconsin
Current Conditions -  °F | °C
As of 8:31 AM on Tuesday 21 Oct 2014 (Local Time) from K21D Reporting Station
Clear Clear  
Wind Chill: 32°   Ceiling: Unl
Heat Index: 32°   Visibility: 10mi
Dew Point: 32°   Wind: 0mph
Humidity: 100%   Direction: NA
Pressure: 30.22"   Gusts: NA
Location:  44.9743°N, 92.6899°W
Report Text: K21D 211331Z AUTO 00000KT 10SM CLR 00/00 A3022 RMK AO2
Loading
Personal Weather Stations






























Interactive Weather Map
Tropical Storm Tracking
New forecast layout! Learn more

10-Day Weather Forecast

Advertisements
Track Severe Weather on mobile